createdAt,value
2023-01-11T00:00:58.598Z,0.40
2023-01-11T00:01:59.131Z,0.60
2023-01-11T00:02:58.920Z,0.50
2023-01-11T00:03:58.567Z,0.40
2023-01-11T00:04:59.248Z,0.60
2023-01-11T00:05:58.558Z,0.50
2023-01-11T00:06:58.578Z,0.60
2023-01-11T00:07:58.971Z,0.50
2023-01-11T00:08:58.488Z,0.40
2023-01-11T00:09:58.504Z,0.40
2023-01-11T00:10:58.514Z,0.50
2023-01-11T00:11:58.934Z,0.50
2023-01-11T00:12:58.444Z,0.60
2023-01-11T00:13:58.798Z,0.50
2023-01-11T00:14:59.277Z,0.70
2023-01-11T00:15:58.959Z,0.60
2023-01-11T00:16:58.940Z,0.60
2023-01-11T00:17:58.935Z,0.70
2023-01-11T00:18:58.516Z,0.60
2023-01-11T00:19:58.377Z,0.50
2023-01-11T00:20:58.374Z,0.60
2023-01-11T00:21:58.425Z,0.60
2023-01-11T00:22:58.446Z,0.70
2023-01-11T00:23:58.467Z,0.60
2023-01-11T00:24:58.328Z,0.80
2023-01-11T00:25:58.320Z,0.70
2023-01-11T00:26:58.557Z,0.50
2023-01-11T00:27:58.290Z,0.60
2023-01-11T00:28:58.606Z,0.50
2023-01-11T00:29:58.246Z,0.60
2023-01-11T00:30:58.298Z,0.60
2023-01-11T00:31:58.700Z,0.60
2023-01-11T00:32:58.717Z,0.60
2023-01-11T00:33:58.749Z,0.70
2023-01-11T00:34:58.677Z,0.60
2023-01-11T00:35:58.212Z,0.50
2023-01-11T00:36:58.840Z,0.50
2023-01-11T00:37:58.359Z,0.60
2023-01-11T00:38:58.891Z,0.60
2023-01-11T00:39:58.271Z,0.50
2023-01-11T00:40:58.958Z,0.70
2023-01-11T00:41:58.128Z,0.50
2023-01-11T00:42:58.162Z,0.80
2023-01-11T00:43:58.176Z,0.60
2023-01-11T00:44:58.207Z,0.60
2023-01-11T00:45:58.087Z,0.70
2023-01-11T00:46:58.265Z,0.60
2023-01-11T00:47:58.285Z,0.40
2023-01-11T00:48:58.306Z,0.60
2023-01-11T00:49:58.336Z,0.60
2023-01-11T00:50:58.363Z,0.60
2023-01-11T00:51:58.013Z,0.60
2023-01-11T00:52:58.001Z,0.60
2023-01-11T00:53:57.972Z,0.60
2023-01-11T00:54:57.987Z,0.60
2023-01-11T00:55:57.970Z,0.50
2023-01-11T00:56:57.967Z,0.60
2023-01-11T00:57:57.940Z,0.50
2023-01-11T00:58:57.929Z,0.70
2023-01-11T00:59:57.913Z,0.60
2023-01-11T01:00:57.959Z,0.80
2023-01-11T01:01:57.888Z,0.60
2023-01-11T01:02:57.990Z,0.60
2023-01-11T01:03:57.957Z,0.50
2023-01-11T01:04:57.865Z,0.50
2023-01-11T01:05:57.841Z,0.60
2023-01-11T01:06:57.921Z,0.50
2023-01-11T01:07:57.822Z,0.70
2023-01-11T01:08:57.835Z,0.80
2023-01-11T01:09:57.797Z,0.50
2023-01-11T01:10:57.816Z,0.60
2023-01-11T01:11:57.788Z,0.50
2023-01-11T01:12:57.794Z,0.50
2023-01-11T01:13:57.765Z,0.60
2023-01-11T01:14:57.852Z,0.70
2023-01-11T01:15:57.784Z,0.60
2023-01-11T01:16:57.746Z,0.60
2023-01-11T01:17:57.755Z,0.70
2023-01-11T01:18:57.712Z,0.60
2023-01-11T01:19:57.976Z,0.50
2023-01-11T01:20:57.683Z,0.50
2023-01-11T01:21:57.655Z,0.70
2023-01-11T01:22:57.661Z,0.70
2023-01-11T01:23:57.627Z,0.60
2023-01-11T01:24:57.640Z,0.60
2023-01-11T01:25:57.604Z,0.60
2023-01-11T01:26:57.616Z,0.60
2023-01-11T01:27:57.989Z,0.60
2023-01-11T01:28:57.594Z,0.60
2023-01-11T01:29:57.979Z,0.60
2023-01-11T01:30:58.016Z,0.50
2023-01-11T01:31:57.531Z,0.70
2023-01-11T01:32:57.541Z,0.50
2023-01-11T01:33:57.507Z,0.60
2023-01-11T01:34:57.524Z,0.60
2023-01-11T01:35:57.542Z,0.50
2023-01-11T01:36:57.495Z,0.60
2023-01-11T01:37:57.574Z,0.50
2023-01-11T01:38:57.474Z,0.60
2023-01-11T01:39:57.451Z,0.50
2023-01-11T01:40:57.454Z,0.50
2023-01-11T01:41:57.420Z,0.50
2023-01-11T01:42:57.710Z,0.90
2023-01-11T01:43:57.741Z,0.60
2023-01-11T01:44:57.404Z,0.50
2023-01-11T01:45:57.411Z,0.60
2023-01-11T01:46:57.382Z,0.60
2023-01-11T01:47:57.349Z,0.60
2023-01-11T01:48:57.357Z,0.50
2023-01-11T01:49:57.351Z,0.60
2023-01-11T01:50:57.336Z,0.50
2023-01-11T01:51:57.960Z,0.60
2023-01-11T01:52:57.300Z,0.50
2023-01-11T01:53:57.278Z,0.60
2023-01-11T01:54:57.302Z,0.60
2023-01-11T01:55:57.269Z,0.70
2023-01-11T01:56:57.253Z,0.50
2023-01-11T01:57:57.233Z,0.70
2023-01-11T01:58:57.240Z,0.70
2023-01-11T01:59:58.012Z,0.70
2023-01-11T02:00:57.232Z,0.50
2023-01-11T02:01:57.218Z,0.70
2023-01-11T02:02:57.212Z,0.60
2023-01-11T02:03:57.161Z,0.70
2023-01-11T02:04:57.184Z,0.50
2023-01-11T02:05:57.132Z,0.60
2023-01-11T02:06:57.353Z,0.50
2023-01-11T02:07:57.266Z,0.70
2023-01-11T02:08:57.119Z,0.60
2023-01-11T02:09:57.322Z,0.50
2023-01-11T02:10:57.094Z,0.60
2023-01-11T02:11:57.070Z,0.70
2023-01-11T02:12:57.068Z,0.70
2023-01-11T02:13:57.040Z,0.50
2023-01-11T02:14:57.060Z,0.60
2023-01-11T02:15:57.053Z,0.70
2023-01-11T02:16:57.032Z,0.70
2023-01-11T02:17:57.005Z,0.60
2023-01-11T02:18:57.021Z,0.70
2023-01-11T02:19:57.003Z,0.70
2023-01-11T02:20:56.980Z,0.60
2023-01-11T02:21:56.951Z,0.50
2023-01-11T02:22:57.030Z,0.60
2023-01-11T02:23:57.027Z,0.60
2023-01-11T02:24:56.954Z,0.60
2023-01-11T02:25:56.982Z,0.50
2023-01-11T02:26:56.925Z,0.60
2023-01-11T02:27:56.886Z,0.70
2023-01-11T02:28:56.882Z,1.20
2023-01-11T02:29:56.875Z,0.50
2023-01-11T02:30:56.940Z,0.60
2023-01-11T02:31:56.972Z,0.60
2023-01-11T02:32:56.850Z,0.90
2023-01-11T02:33:56.822Z,0.60
2023-01-11T02:34:57.033Z,0.60
2023-01-11T02:35:56.795Z,0.70
2023-01-11T02:36:56.805Z,0.50
2023-01-11T02:37:57.048Z,0.50
2023-01-11T02:38:57.044Z,0.70
2023-01-11T02:39:56.756Z,0.60
2023-01-11T02:40:56.766Z,0.70
2023-01-11T02:41:56.725Z,0.60
2023-01-11T02:42:56.740Z,0.60
2023-01-11T02:43:56.703Z,0.60
2023-01-11T02:44:56.723Z,0.70
2023-01-11T02:45:56.675Z,0.70
2023-01-11T02:46:57.040Z,0.60
2023-01-11T02:47:56.654Z,0.60
2023-01-11T02:48:56.668Z,0.70
2023-01-11T02:49:57.043Z,0.60
2023-01-11T02:50:56.975Z,0.60
2023-01-11T02:51:56.618Z,0.70
2023-01-11T02:52:56.619Z,0.60
2023-01-11T02:53:56.576Z,0.90
2023-01-11T02:54:57.043Z,0.70
2023-01-11T02:55:56.575Z,0.90
2023-01-11T02:56:56.560Z,0.60
2023-01-11T02:57:56.543Z,0.90
2023-01-11T02:58:56.653Z,0.70
2023-01-11T02:59:56.533Z,0.90
2023-01-11T03:00:56.527Z,0.60
2023-01-11T03:01:56.502Z,1.00
2023-01-11T03:02:56.783Z,0.70
2023-01-11T03:03:56.466Z,0.80
2023-01-11T03:04:56.468Z,0.80
2023-01-11T03:05:56.841Z,0.70
2023-01-11T03:06:56.536Z,0.80
2023-01-11T03:07:56.426Z,0.60
2023-01-11T03:08:56.433Z,0.80
2023-01-11T03:09:56.414Z,0.70
2023-01-11T03:10:56.514Z,0.60
2023-01-11T03:11:57.011Z,0.70
2023-01-11T03:12:56.373Z,0.70
2023-01-11T03:13:56.358Z,0.70
2023-01-11T03:14:57.067Z,0.60
2023-01-11T03:15:56.384Z,0.60
2023-01-11T03:16:56.342Z,0.70
2023-01-11T03:17:56.674Z,0.60
2023-01-11T03:18:57.061Z,0.70
2023-01-11T03:19:56.725Z,0.50
2023-01-11T03:20:56.446Z,0.60
2023-01-11T03:21:56.277Z,0.50
2023-01-11T03:22:56.265Z,0.70
2023-01-11T03:23:56.272Z,0.70
2023-01-11T03:24:56.260Z,0.50
2023-01-11T03:25:56.217Z,0.70
2023-01-11T03:26:56.410Z,0.70
2023-01-11T03:27:56.424Z,0.80
2023-01-11T03:28:56.191Z,0.60
2023-01-11T03:29:56.223Z,0.70
2023-01-11T03:30:56.175Z,0.60
2023-01-11T03:31:56.141Z,0.50
2023-01-11T03:32:56.147Z,0.70
2023-01-11T03:33:56.113Z,0.50
2023-01-11T03:34:56.156Z,0.60
2023-01-11T03:35:56.108Z,0.60
2023-01-11T03:36:56.114Z,0.50
2023-01-11T03:37:56.092Z,0.50
2023-01-11T03:38:56.089Z,0.50
2023-01-11T03:39:56.058Z,0.50
2023-01-11T03:40:56.079Z,0.50
2023-01-11T03:41:56.070Z,0.70
2023-01-11T03:42:56.108Z,0.60
2023-01-11T03:43:56.007Z,0.40
2023-01-11T03:44:56.147Z,0.60
2023-01-11T03:45:55.998Z,0.50
2023-01-11T03:46:56.122Z,0.40
2023-01-11T03:47:55.971Z,0.50
2023-01-11T03:48:55.980Z,0.40
2023-01-11T03:49:55.967Z,0.40
2023-01-11T03:50:56.057Z,0.50
2023-01-11T03:51:55.919Z,0.40
2023-01-11T03:52:55.918Z,0.40
2023-01-11T03:53:56.076Z,0.40
2023-01-11T03:54:55.897Z,0.40
2023-01-11T03:55:55.902Z,0.30
2023-01-11T03:56:55.884Z,0.40
2023-01-11T03:57:55.841Z,0.50
2023-01-11T03:58:56.282Z,0.50
2023-01-11T03:59:55.840Z,0.50
2023-01-11T04:00:55.894Z,0.50
2023-01-11T04:01:56.091Z,0.40
2023-01-11T04:02:55.808Z,0.50
2023-01-11T04:03:56.490Z,0.50
2023-01-11T04:04:55.798Z,0.60
2023-01-11T04:05:55.756Z,0.50
2023-01-11T04:06:56.646Z,0.40
2023-01-11T04:07:55.748Z,0.50
2023-01-11T04:08:55.738Z,0.40
2023-01-11T04:09:56.094Z,0.60
2023-01-11T04:10:55.726Z,0.50
2023-01-11T04:11:56.100Z,0.40
2023-01-11T04:12:55.695Z,0.50
2023-01-11T04:13:55.665Z,0.50
2023-01-11T04:14:55.703Z,0.50
2023-01-11T04:15:55.800Z,0.30
2023-01-11T04:16:55.690Z,0.60
2023-01-11T04:17:55.628Z,0.40
2023-01-11T04:18:55.646Z,0.40
2023-01-11T04:19:55.648Z,0.40
2023-01-11T04:20:55.601Z,0.40
2023-01-11T04:21:55.831Z,0.40
2023-01-11T04:22:55.825Z,0.40
2023-01-11T04:23:55.564Z,0.50
2023-01-11T04:24:55.906Z,0.50
2023-01-11T04:25:55.921Z,0.40
2023-01-11T04:26:55.950Z,0.40
2023-01-11T04:27:55.505Z,0.50
2023-01-11T04:28:55.511Z,0.70
2023-01-11T04:29:55.474Z,0.50
2023-01-11T04:30:55.531Z,0.30
2023-01-11T04:31:55.537Z,0.40
2023-01-11T04:32:55.466Z,0.50
2023-01-11T04:33:56.117Z,0.40
2023-01-11T04:34:56.117Z,0.40
2023-01-11T04:35:56.189Z,0.40
2023-01-11T04:36:56.212Z,0.30
2023-01-11T04:37:55.407Z,0.50
2023-01-11T04:38:55.415Z,0.30
2023-01-11T04:39:55.409Z,0.60
2023-01-11T04:40:55.476Z,0.40
2023-01-11T04:41:55.500Z,0.30
2023-01-11T04:42:55.498Z,0.30
2023-01-11T04:43:55.338Z,0.40
2023-01-11T04:44:55.319Z,0.50
2023-01-11T04:45:55.385Z,0.50
2023-01-11T04:46:55.631Z,0.50
2023-01-11T04:47:55.290Z,0.30
2023-01-11T04:48:55.687Z,0.50
2023-01-11T04:49:55.635Z,0.40
2023-01-11T04:50:55.250Z,0.40
2023-01-11T04:51:55.247Z,0.50
2023-01-11T04:52:55.272Z,0.40
2023-01-11T04:53:55.228Z,0.40
2023-01-11T04:54:55.680Z,0.40
2023-01-11T04:55:55.875Z,0.40
2023-01-11T04:56:55.558Z,0.60
2023-01-11T04:57:55.591Z,0.40
2023-01-11T04:58:55.169Z,0.40
2023-01-11T04:59:55.177Z,0.40
2023-01-11T05:00:55.206Z,0.30
2023-01-11T05:01:55.133Z,0.40
2023-01-11T05:02:55.163Z,0.30
2023-01-11T05:03:55.144Z,0.40
2023-01-11T05:04:56.012Z,0.30
2023-01-11T05:05:55.147Z,0.40
2023-01-11T05:06:55.170Z,0.40
2023-01-11T05:07:55.059Z,0.50
2023-01-11T05:08:55.038Z,0.40
2023-01-11T05:09:55.075Z,0.30
2023-01-11T05:10:55.071Z,0.30
2023-01-11T05:11:55.032Z,0.30
2023-01-11T05:12:54.994Z,0.30
2023-01-11T05:13:55.008Z,0.30
2023-01-11T05:14:54.970Z,0.40
2023-01-11T05:15:54.988Z,0.40
2023-01-11T05:16:54.962Z,0.30
2023-01-11T05:17:54.948Z,0.40
2023-01-11T05:18:55.291Z,0.40
2023-01-11T05:19:54.949Z,0.30
2023-01-11T05:20:54.904Z,0.20
2023-01-11T05:21:55.150Z,0.30
2023-01-11T05:22:55.136Z,0.40
2023-01-11T05:23:54.883Z,0.30
2023-01-11T05:24:54.863Z,0.40
2023-01-11T05:25:54.883Z,0.30
2023-01-11T05:26:54.840Z,0.30
2023-01-11T05:27:54.848Z,0.30
2023-01-11T05:28:54.815Z,0.50
2023-01-11T05:29:54.820Z,0.40
2023-01-11T05:30:54.814Z,0.20
2023-01-11T05:31:55.056Z,0.30
2023-01-11T05:32:54.763Z,0.40
2023-01-11T05:33:54.788Z,0.30
2023-01-11T05:34:55.097Z,0.40
2023-01-11T05:35:54.774Z,0.20
2023-01-11T05:36:54.727Z,0.30
2023-01-11T05:37:55.166Z,0.20
2023-01-11T05:38:54.702Z,0.40
2023-01-11T05:39:54.730Z,0.40
2023-01-11T05:40:54.675Z,0.40
2023-01-11T05:41:55.322Z,0.40
2023-01-11T05:42:54.670Z,0.30
2023-01-11T05:43:54.658Z,0.40
2023-01-11T05:44:56.315Z,0.30
2023-01-11T05:45:55.209Z,0.40
2023-01-11T05:46:55.162Z,0.30
2023-01-11T05:47:54.624Z,0.40
2023-01-11T05:48:54.586Z,0.20
2023-01-11T05:49:54.589Z,0.40
2023-01-11T05:50:55.165Z,0.30
2023-01-11T05:51:54.580Z,0.30
2023-01-11T05:52:54.538Z,0.30
2023-01-11T05:53:55.172Z,0.40
2023-01-11T05:54:55.172Z,0.20
2023-01-11T05:55:54.567Z,0.30
2023-01-11T05:56:54.522Z,0.40
2023-01-11T05:57:54.502Z,0.30
2023-01-11T05:58:54.665Z,0.40
2023-01-11T05:59:54.475Z,0.30
2023-01-11T06:00:54.548Z,0.20
2023-01-11T06:01:55.256Z,0.40
2023-01-11T06:02:54.517Z,0.30
2023-01-11T06:03:54.472Z,0.40
2023-01-11T06:04:55.513Z,0.30
2023-01-11T06:05:54.411Z,0.30
2023-01-11T06:06:54.617Z,0.40
2023-01-11T06:07:54.376Z,0.30
2023-01-11T06:08:54.579Z,0.40
2023-01-11T06:09:54.367Z,0.40
2023-01-11T06:10:54.341Z,0.40
2023-01-11T06:11:54.657Z,0.40
2023-01-11T06:12:54.320Z,0.40
2023-01-11T06:13:54.325Z,0.30
2023-01-11T06:14:54.364Z,0.40
2023-01-11T06:15:54.303Z,0.20
2023-01-11T06:16:54.324Z,0.40
2023-01-11T06:17:54.461Z,0.40
2023-01-11T06:18:54.480Z,0.40
2023-01-11T06:19:54.265Z,0.20
2023-01-11T06:20:54.249Z,0.40
2023-01-11T06:21:54.228Z,0.40
2023-01-11T06:22:54.214Z,0.50
2023-01-11T06:23:54.217Z,0.40
2023-01-11T06:24:54.198Z,0.30
2023-01-11T06:25:54.191Z,0.50
2023-01-11T06:26:54.164Z,0.50
2023-01-11T06:27:54.160Z,0.30
2023-01-11T06:28:54.152Z,0.40
2023-01-11T06:29:54.139Z,0.30
2023-01-11T06:30:54.295Z,0.40
2023-01-11T06:31:54.128Z,0.40
2023-01-11T06:32:54.192Z,0.40
2023-01-11T06:33:54.108Z,0.30
2023-01-11T06:34:54.071Z,0.40
2023-01-11T06:35:54.091Z,0.40
2023-01-11T06:36:54.047Z,0.50
2023-01-11T06:37:54.206Z,0.40
2023-01-11T06:38:54.118Z,0.40
2023-01-11T06:39:54.025Z,0.30
2023-01-11T06:40:54.201Z,0.40
2023-01-11T06:41:54.012Z,0.30
2023-01-11T06:42:53.979Z,0.50
2023-01-11T06:43:54.048Z,0.20
2023-01-11T06:44:53.956Z,0.40
2023-01-11T06:45:53.990Z,0.50
2023-01-11T06:46:54.142Z,0.40
2023-01-11T06:47:53.924Z,0.30
2023-01-11T06:48:53.909Z,0.40
2023-01-11T06:49:53.933Z,0.30
2023-01-11T06:50:53.882Z,0.40
2023-01-11T06:51:53.891Z,0.40
2023-01-11T06:52:53.868Z,0.40
2023-01-11T06:53:54.205Z,0.40
2023-01-11T06:54:54.213Z,0.40
2023-01-11T06:55:54.217Z,0.50
2023-01-11T06:56:53.838Z,0.40
2023-01-11T06:57:53.830Z,0.40
2023-01-11T06:58:53.798Z,0.40
2023-01-11T06:59:53.821Z,0.70
2023-01-11T07:00:53.861Z,0.40
2023-01-11T07:01:53.793Z,0.40
2023-01-11T07:02:53.767Z,0.30
2023-01-11T07:03:53.759Z,0.30
2023-01-11T07:04:54.024Z,0.30
2023-01-11T07:05:54.024Z,0.30
2023-01-11T07:06:53.701Z,0.40
2023-01-11T07:07:53.710Z,0.40
2023-01-11T07:08:53.713Z,0.30
2023-01-11T07:09:53.694Z,0.40
2023-01-11T07:10:53.672Z,0.30
2023-01-11T07:11:54.197Z,0.40
2023-01-11T07:12:53.645Z,0.40
2023-01-11T07:13:53.650Z,0.40
2023-01-11T07:14:53.644Z,0.30
2023-01-11T07:15:53.656Z,0.60
2023-01-11T07:16:53.591Z,0.50
2023-01-11T07:17:53.603Z,0.40
2023-01-11T07:18:54.221Z,0.40
2023-01-11T07:19:53.589Z,0.40
2023-01-11T07:20:54.235Z,0.40
2023-01-11T07:21:54.231Z,0.50
2023-01-11T07:22:54.227Z,0.40
2023-01-11T07:23:53.548Z,0.40
2023-01-11T07:24:53.509Z,0.40
2023-01-11T07:25:53.532Z,0.40
2023-01-11T07:26:53.481Z,0.40
2023-01-11T07:27:53.486Z,0.40
2023-01-11T07:28:54.226Z,0.50
2023-01-11T07:29:53.472Z,0.30
2023-01-11T07:30:58.788Z,0.40
2023-01-11T07:31:54.442Z,0.40
2023-01-11T07:32:53.408Z,0.50
2023-01-11T07:33:53.428Z,0.40
2023-01-11T07:34:53.402Z,0.60
2023-01-11T07:35:53.403Z,0.30
2023-01-11T07:36:53.384Z,0.40
2023-01-11T07:37:53.551Z,0.40
2023-01-11T07:38:54.246Z,0.60
2023-01-11T07:39:53.344Z,0.40
2023-01-11T07:40:53.333Z,0.40
2023-01-11T07:41:54.254Z,0.30
2023-01-11T07:42:54.155Z,0.40
2023-01-11T07:43:53.297Z,0.30
2023-01-11T07:44:53.284Z,0.40
2023-01-11T07:45:53.539Z,0.50
2023-01-11T07:46:53.451Z,0.30
2023-01-11T07:47:53.261Z,0.40
2023-01-11T07:48:53.244Z,0.40
2023-01-11T07:49:53.234Z,0.50
2023-01-11T07:50:53.288Z,0.40
2023-01-11T07:51:53.227Z,0.40
2023-01-11T07:52:53.206Z,0.30
2023-01-11T07:53:53.193Z,0.30
2023-01-11T07:54:53.194Z,0.30
2023-01-11T07:55:53.173Z,0.40
2023-01-11T07:56:53.151Z,0.30
2023-01-11T07:57:53.150Z,0.30
2023-01-11T07:58:53.114Z,0.40
2023-01-11T07:59:53.127Z,0.30
2023-01-11T08:00:53.277Z,0.30
2023-01-11T08:01:53.258Z,0.40
2023-01-11T08:02:53.342Z,0.40
2023-01-11T08:03:53.107Z,0.60
2023-01-11T08:04:53.069Z,0.70
2023-01-11T08:05:53.127Z,0.80
2023-01-11T08:06:53.031Z,0.70
2023-01-11T08:07:53.034Z,0.60
2023-01-11T08:08:53.028Z,0.50
2023-01-11T08:09:53.204Z,0.40
2023-01-11T08:10:52.984Z,0.40
2023-01-11T08:11:53.266Z,0.60
2023-01-11T08:12:52.962Z,0.40
2023-01-11T08:13:52.973Z,0.30
2023-01-11T08:14:52.940Z,0.40
2023-01-11T08:15:52.978Z,0.30
2023-01-11T08:16:52.922Z,0.30
2023-01-11T08:17:52.937Z,0.40
2023-01-11T08:18:52.897Z,0.30
2023-01-11T08:19:52.886Z,0.40
2023-01-11T08:20:52.865Z,0.30
2023-01-11T08:21:52.892Z,0.30
2023-01-11T08:22:52.845Z,0.30
2023-01-11T08:23:52.858Z,0.40
2023-01-11T08:24:53.277Z,0.40
2023-01-11T08:25:53.279Z,0.40
2023-01-11T08:26:52.854Z,0.40
2023-01-11T08:27:52.801Z,0.30
2023-01-11T08:28:52.770Z,0.40
2023-01-11T08:29:52.796Z,0.30
2023-01-11T08:30:52.800Z,0.50
2023-01-11T08:31:52.790Z,0.40
2023-01-11T08:32:52.724Z,0.40
2023-01-11T08:33:52.759Z,0.40
2023-01-11T08:34:52.725Z,0.30
2023-01-11T08:35:52.707Z,0.40
2023-01-11T08:36:52.690Z,0.50
2023-01-11T08:37:52.707Z,0.40
2023-01-11T08:38:52.705Z,0.50
2023-01-11T08:39:52.692Z,0.30
2023-01-11T08:40:53.081Z,0.50
2023-01-11T08:41:52.676Z,0.30
2023-01-11T08:42:52.702Z,0.40
2023-01-11T08:43:52.625Z,0.30
2023-01-11T08:44:52.616Z,0.50
2023-01-11T08:45:52.609Z,0.30
2023-01-11T08:46:52.665Z,0.40
2023-01-11T08:47:52.586Z,0.50
2023-01-11T08:48:52.557Z,0.50
2023-01-11T08:49:52.564Z,0.60
2023-01-11T08:50:52.545Z,0.40
2023-01-11T08:51:52.527Z,0.20
2023-01-11T08:52:52.529Z,0.40
2023-01-11T08:53:52.488Z,0.40
2023-01-11T08:54:52.838Z,0.40
2023-01-11T08:55:52.488Z,0.40
2023-01-11T08:56:52.509Z,0.50
2023-01-11T08:57:52.453Z,0.40
2023-01-11T08:58:52.951Z,0.50
2023-01-11T08:59:52.460Z,0.50
2023-01-11T09:00:52.448Z,0.60
2023-01-11T09:01:52.506Z,0.40
2023-01-11T09:02:52.451Z,0.50
2023-01-11T09:03:52.389Z,0.50
2023-01-11T09:04:52.479Z,0.90
2023-01-11T09:05:53.191Z,0.60
2023-01-11T09:06:53.151Z,0.80
2023-01-11T09:07:52.347Z,0.70
2023-01-11T09:08:52.338Z,0.90
2023-01-11T09:09:52.332Z,0.80
2023-01-11T09:10:52.315Z,0.60
2023-01-11T09:11:52.301Z,0.80
2023-01-11T09:12:52.299Z,0.70
2023-01-11T09:13:52.290Z,0.60
2023-01-11T09:14:52.291Z,0.80
2023-01-11T09:15:52.287Z,0.60
2023-01-11T09:16:52.253Z,0.60
2023-01-11T09:17:52.226Z,0.70
2023-01-11T09:18:52.240Z,0.70
2023-01-11T09:19:52.211Z,0.70
2023-01-11T09:20:52.197Z,0.60
2023-01-11T09:21:52.184Z,0.70
2023-01-11T09:22:53.027Z,0.70
2023-01-11T09:23:52.160Z,0.50
2023-01-11T09:24:52.163Z,0.60
2023-01-11T09:25:52.122Z,0.60
2023-01-11T09:26:52.211Z,0.70
2023-01-11T09:27:52.131Z,0.50
2023-01-11T09:28:52.213Z,0.60
2023-01-11T09:29:52.108Z,0.60
2023-01-11T09:30:52.090Z,0.40
2023-01-11T09:31:52.093Z,0.50
2023-01-11T09:32:52.071Z,0.40
2023-01-11T09:33:52.036Z,0.50
2023-01-11T09:34:52.076Z,0.60
2023-01-11T09:35:52.023Z,0.60
2023-01-11T09:36:52.022Z,0.60
2023-01-11T09:37:51.988Z,0.60
2023-01-11T09:38:51.990Z,0.40
2023-01-11T09:39:51.997Z,0.50
2023-01-11T09:40:52.021Z,0.50
2023-01-11T09:41:51.941Z,0.70
2023-01-11T09:42:51.946Z,0.60
2023-01-11T09:43:51.924Z,0.60
2023-01-11T09:44:51.941Z,0.60
2023-01-11T09:45:51.917Z,0.50
2023-01-11T09:46:51.904Z,0.70
2023-01-11T09:47:51.878Z,0.60
2023-01-11T09:48:51.883Z,0.60
2023-01-11T09:49:52.286Z,0.80
2023-01-11T09:50:51.867Z,0.60
2023-01-11T09:51:51.838Z,0.80
2023-01-11T09:52:51.838Z,0.70
2023-01-11T09:53:51.812Z,0.60
2023-01-11T09:54:51.830Z,0.60
2023-01-11T09:55:51.806Z,0.80
2023-01-11T09:56:51.793Z,0.80
2023-01-11T09:57:51.894Z,0.70
2023-01-11T09:58:51.757Z,0.70
2023-01-11T09:59:51.746Z,0.80
2023-01-11T10:00:51.816Z,0.60
2023-01-11T10:01:51.723Z,0.70
2023-01-11T10:02:51.726Z,0.50
2023-01-11T10:03:51.693Z,0.80
2023-01-11T10:04:51.733Z,0.60
2023-01-11T10:05:51.676Z,0.50
2023-01-11T10:06:51.679Z,0.80
2023-01-11T10:07:51.643Z,0.70
2023-01-11T10:18:32.088Z,0.50
2023-01-11T10:18:33.076Z,0.40
2023-01-11T10:18:39.530Z,0.60
2023-01-11T10:18:41.585Z,0.60
2023-01-11T10:19:24.632Z,0.50
2023-01-11T10:19:52.932Z,0.50
2023-01-11T10:20:51.562Z,0.60
2023-01-11T10:21:51.512Z,0.50
2023-01-11T10:22:51.499Z,0.60
2023-01-11T10:23:51.465Z,0.50
2023-01-11T10:24:51.470Z,0.60
2023-01-11T10:25:51.635Z,0.50
2023-01-11T10:26:51.614Z,0.70
2023-01-11T10:27:51.420Z,0.50
2023-01-11T10:28:51.427Z,0.50
2023-01-11T10:29:51.503Z,0.60
2023-01-11T10:30:51.583Z,0.50
2023-01-11T10:31:51.601Z,0.50
2023-01-11T10:32:51.385Z,0.60
2023-01-11T10:33:51.360Z,0.50
2023-01-11T10:34:51.350Z,0.60
2023-01-11T10:35:51.344Z,0.40
2023-01-11T10:36:51.338Z,0.50
2023-01-11T10:37:51.318Z,0.60
2023-01-11T10:38:51.312Z,0.60
2023-01-11T10:39:51.376Z,0.40
2023-01-11T10:40:51.285Z,0.50
2023-01-11T10:41:51.271Z,0.50
2023-01-11T10:42:51.276Z,0.60
2023-01-11T10:43:51.240Z,0.60
2023-01-11T10:44:51.231Z,0.50
2023-01-11T10:45:51.614Z,0.60
2023-01-11T10:46:51.213Z,0.50
2023-01-11T10:47:51.223Z,0.60
2023-01-11T10:48:51.231Z,0.70
2023-01-11T10:49:51.179Z,0.60
2023-01-11T10:50:51.237Z,0.50
2023-01-11T10:51:51.142Z,0.60
2023-01-11T10:52:51.146Z,0.60
2023-01-11T10:53:51.131Z,0.60
2023-01-11T10:54:51.150Z,0.70
2023-01-11T10:55:51.100Z,0.60
2023-01-11T10:57:03.090Z,0.50
2023-01-11T10:58:01.407Z,0.60
2023-01-11T10:58:52.304Z,0.50
2023-01-11T10:59:51.075Z,0.60
2023-01-11T11:00:51.084Z,0.50
2023-01-11T11:01:51.407Z,0.40
2023-01-11T11:02:51.244Z,0.70
2023-01-11T11:03:51.026Z,0.50
2023-01-11T11:04:51.094Z,0.40
2023-01-11T11:05:50.993Z,0.40
2023-01-11T11:06:51.036Z,0.40
2023-01-11T11:07:50.963Z,0.40
2023-01-11T11:08:50.962Z,0.40
2023-01-11T11:09:51.409Z,0.40
2023-01-11T11:10:50.956Z,0.40
2023-01-11T11:11:51.385Z,0.40
2023-01-11T11:12:51.245Z,0.30
2023-01-11T11:13:50.929Z,0.40
2023-01-11T11:14:50.905Z,0.50
2023-01-11T11:15:50.886Z,0.40
2023-01-11T11:16:50.914Z,0.50
2023-01-11T11:17:50.993Z,0.30
2023-01-11T11:18:50.851Z,0.30
2023-01-11T11:19:50.850Z,0.40
2023-01-11T11:20:50.841Z,0.40
2023-01-11T11:21:50.985Z,0.50
2023-01-11T11:22:50.817Z,0.30
2023-01-11T11:23:50.792Z,0.50
2023-01-11T11:24:50.793Z,0.50
2023-01-11T11:25:51.264Z,0.40
2023-01-11T11:26:50.789Z,0.40
2023-01-11T11:27:50.745Z,0.50
2023-01-11T11:28:50.777Z,0.40
2023-01-11T11:29:50.729Z,0.50
2023-01-11T11:30:50.859Z,0.40
2023-01-11T11:31:50.739Z,0.40
2023-01-11T11:32:50.715Z,0.40
2023-01-11T11:33:50.920Z,0.40
2023-01-11T11:34:50.696Z,0.50
2023-01-11T11:35:51.015Z,0.50
2023-01-11T11:36:50.663Z,0.40
2023-01-11T11:37:50.892Z,0.60
2023-01-11T11:38:51.079Z,0.50
2023-01-11T11:39:51.099Z,0.50
2023-01-11T11:40:51.120Z,0.40
2023-01-11T11:41:51.150Z,0.60
2023-01-11T11:42:51.165Z,0.50
2023-01-11T11:43:50.868Z,0.40
2023-01-11T11:44:51.204Z,0.50
2023-01-11T11:45:50.577Z,0.70
2023-01-11T11:46:50.568Z,0.40
2023-01-11T11:47:50.495Z,0.80
2023-01-11T11:48:51.261Z,0.50
2023-01-11T11:49:51.363Z,0.60
2023-01-11T11:50:51.284Z,0.50
2023-01-11T11:51:50.471Z,0.60
2023-01-11T11:52:51.268Z,0.50
2023-01-11T11:53:50.424Z,0.80
2023-01-11T11:54:50.433Z,0.40
2023-01-11T11:55:50.423Z,0.60
2023-01-11T11:56:50.435Z,0.50
2023-01-11T11:57:50.387Z,0.60
2023-01-11T11:58:50.386Z,0.70
2023-01-11T11:59:50.533Z,0.90
2023-01-11T12:00:50.376Z,0.80
2023-01-11T12:01:50.408Z,0.70
2023-01-11T12:02:50.344Z,0.50
2023-01-11T12:03:50.315Z,0.70
2023-01-11T12:04:50.719Z,0.60
2023-01-11T12:05:50.425Z,0.80
2023-01-11T12:06:50.301Z,0.70
2023-01-11T12:07:55.162Z,0.70
2023-01-11T12:08:51.285Z,0.70
2023-01-11T12:09:50.255Z,0.60
2023-01-11T12:10:50.244Z,0.60
2023-01-11T12:11:50.233Z,0.60
2023-01-11T12:12:50.283Z,0.60
2023-01-11T12:13:50.201Z,0.60
2023-01-11T12:14:50.264Z,0.60
2023-01-11T12:15:50.434Z,0.70
2023-01-11T12:16:50.355Z,0.60
2023-01-11T12:17:50.182Z,0.70
2023-01-11T12:18:50.177Z,0.70
2023-01-11T12:19:50.129Z,0.50
2023-01-11T12:20:50.162Z,0.70
2023-01-11T12:21:50.113Z,0.60
2023-01-11T12:22:50.127Z,0.70
2023-01-11T12:23:50.088Z,0.70
2023-01-11T12:24:50.092Z,0.70
2023-01-11T12:25:50.054Z,0.60
2023-01-11T12:26:50.203Z,0.70
2023-01-11T12:27:50.073Z,0.60
2023-01-11T12:28:50.057Z,0.60
2023-01-11T12:29:50.017Z,0.60
2023-01-11T12:30:50.310Z,0.70
2023-01-11T12:31:50.001Z,0.80
2023-01-11T12:32:50.003Z,0.70
2023-01-11T12:33:49.994Z,0.70
2023-01-11T12:34:49.975Z,0.80
2023-01-11T12:35:49.949Z,0.60
2023-01-11T12:36:49.947Z,0.70
2023-01-11T12:37:50.448Z,0.70
2023-01-11T12:38:50.267Z,0.70
2023-01-11T12:39:49.909Z,0.60
2023-01-11T12:40:49.914Z,0.70
2023-01-11T12:41:49.883Z,0.60
2023-01-11T12:42:49.891Z,0.60
2023-01-11T12:43:49.867Z,0.90
2023-01-11T12:44:49.854Z,0.80
2023-01-11T12:45:49.902Z,0.50
2023-01-11T12:46:49.860Z,0.70
2023-01-11T12:47:49.838Z,0.70
2023-01-11T12:48:49.838Z,0.80
2023-01-11T12:49:49.788Z,0.70
2023-01-11T12:50:49.786Z,0.70
2023-01-11T12:51:49.756Z,0.70
2023-01-11T12:52:49.774Z,0.70
2023-01-11T12:53:49.738Z,0.80
2023-01-11T12:54:49.785Z,0.70
2023-01-11T12:55:50.500Z,0.80
2023-01-11T12:56:49.749Z,0.60
2023-01-11T12:57:49.696Z,0.70
2023-01-11T12:58:49.693Z,0.60
2023-01-11T12:59:49.683Z,0.90
2023-01-11T13:00:50.293Z,0.70
2023-01-11T13:01:50.269Z,0.90
2023-01-11T13:02:50.356Z,0.90
2023-01-11T13:03:50.421Z,0.70
2023-01-11T13:04:49.653Z,0.80
2023-01-11T13:05:50.849Z,0.60
2023-01-11T13:06:49.600Z,0.70
2023-01-11T13:07:49.608Z,0.60
2023-01-11T13:08:50.273Z,0.70
2023-01-11T13:09:50.412Z,0.60
2023-01-11T13:10:50.053Z,1.00
2023-01-11T13:11:50.471Z,0.50
2023-01-11T13:12:49.537Z,0.90
2023-01-11T13:13:49.531Z,0.50
2023-01-11T13:14:49.516Z,0.60
2023-01-11T13:15:49.554Z,0.90
2023-01-11T13:16:49.532Z,0.70
2023-01-11T13:17:49.480Z,0.70
2023-01-11T13:18:49.472Z,0.60
2023-01-11T13:19:49.482Z,0.60
2023-01-11T13:21:00.481Z,0.70
2023-01-11T13:21:50.431Z,0.70
2023-01-11T13:22:49.414Z,0.70
2023-01-11T13:23:49.407Z,0.80
2023-01-11T13:24:49.425Z,0.80